createdAt,value
2018-12-17T00:01:58.493Z,24.23
2018-12-17T00:04:32.653Z,24.33
2018-12-17T00:07:06.544Z,24.03
2018-12-17T00:09:41.560Z,24.30
2018-12-17T00:12:16.736Z,24.40
2018-12-17T00:14:50.920Z,25.67
2018-12-17T00:17:24.915Z,26.20
2018-12-17T00:19:58.964Z,24.67
2018-12-17T00:22:32.849Z,22.50
2018-12-17T00:25:06.883Z,23.70
2018-12-17T00:27:40.857Z,21.70
2018-12-17T00:30:14.868Z,21.83
2018-12-17T00:32:48.807Z,21.60
2018-12-17T00:35:22.714Z,22.10
2018-12-17T00:37:56.826Z,22.87
2018-12-17T00:40:30.734Z,23.33
2018-12-17T00:43:04.350Z,23.60
2018-12-17T00:45:38.404Z,22.77
2018-12-17T00:48:12.423Z,22.50
2018-12-17T00:50:46.516Z,22.77
2018-12-17T00:53:20.560Z,22.60
2018-12-17T00:55:54.588Z,20.63
2018-12-17T00:58:28.595Z,21.97
2018-12-17T01:01:02.504Z,22.17
2018-12-17T01:03:36.512Z,21.20
2018-12-17T01:06:10.230Z,21.73
2018-12-17T01:08:44.132Z,21.80
2018-12-17T01:11:17.861Z,20.57
2018-12-17T01:13:51.955Z,20.93
2018-12-17T01:16:26.587Z,20.13
2018-12-17T01:19:00.474Z,19.40
2018-12-17T01:21:34.360Z,19.63
2018-12-17T01:24:08.254Z,21.00
2018-12-17T01:26:42.072Z,19.37
2018-12-17T01:29:15.944Z,19.57
2018-12-17T01:31:49.900Z,19.63
2018-12-17T01:34:23.610Z,19.20
2018-12-17T01:36:57.434Z,18.17
2018-12-17T01:39:31.417Z,17.53
2018-12-17T01:42:05.222Z,18.47
2018-12-17T01:44:39.129Z,18.03
2018-12-17T01:47:12.901Z,17.10
2018-12-17T01:49:47.045Z,16.63
2018-12-17T01:52:21.055Z,16.37
2018-12-17T01:54:54.962Z,16.27
2018-12-17T01:57:28.743Z,16.73
2018-12-17T02:00:02.981Z,17.13
2018-12-17T02:02:36.993Z,15.83
2018-12-17T02:05:10.898Z,15.17
2018-12-17T02:07:44.804Z,15.10
2018-12-17T02:10:18.815Z,15.33
2018-12-17T02:12:52.823Z,15.57
2018-12-17T02:15:26.526Z,15.07
2018-12-17T02:18:00.595Z,14.57
2018-12-17T02:20:34.648Z,14.80
2018-12-17T02:23:08.555Z,14.20
2018-12-17T02:25:42.628Z,14.33
2018-12-17T02:28:16.577Z,14.10
2018-12-17T02:30:50.483Z,14.37
2018-12-17T02:33:24.396Z,15.13
2018-12-17T02:35:58.297Z,15.80
2018-12-17T02:38:32.100Z,15.00
2018-12-17T02:41:06.111Z,15.63
2018-12-17T02:43:40.017Z,14.03
2018-12-17T02:46:13.822Z,15.37
2018-12-17T02:48:47.730Z,13.87
2018-12-17T02:51:21.533Z,13.97
2018-12-17T02:53:55.544Z,15.13
2018-12-17T02:56:29.350Z,14.53
2018-12-17T02:59:03.255Z,16.07
2018-12-17T03:01:37.171Z,14.33
2018-12-17T03:04:11.062Z,13.57
2018-12-17T03:06:44.802Z,14.27
2018-12-17T03:09:18.680Z,14.30
2018-12-17T03:11:52.550Z,14.17
2018-12-17T03:14:26.701Z,12.53
2018-12-17T03:17:00.460Z,12.07
2018-12-17T03:19:34.481Z,11.70
2018-12-17T03:22:08.629Z,11.40
2018-12-17T03:24:42.532Z,10.93
2018-12-17T03:27:16.540Z,11.47
2018-12-17T03:29:50.447Z,11.60
2018-12-17T03:32:24.462Z,11.23
2018-12-17T03:34:58.467Z,10.27
2018-12-17T03:37:32.374Z,10.83
2018-12-17T03:40:06.488Z,10.53
2018-12-17T03:42:40.398Z,10.60
2018-12-17T03:45:14.250Z,10.80
2018-12-17T03:47:48.144Z,10.43
2018-12-17T03:50:22.121Z,10.47
2018-12-17T03:52:56.228Z,10.40
2018-12-17T03:55:30.134Z,10.17
2018-12-17T03:58:04.088Z,9.20
2018-12-17T04:00:38.065Z,8.70
2018-12-17T04:03:12.115Z,8.40
2018-12-17T04:05:45.864Z,7.70
2018-12-17T04:08:19.874Z,8.37
2018-12-17T04:10:53.781Z,7.77
2018-12-17T04:13:27.755Z,7.90
2018-12-17T04:16:01.700Z,8.03
2018-12-17T04:18:35.712Z,7.90
2018-12-17T04:21:09.474Z,8.00
2018-12-17T04:23:43.488Z,7.77
2018-12-17T04:26:17.548Z,7.63
2018-12-17T04:28:51.643Z,7.50
2018-12-17T04:31:25.348Z,7.87
2018-12-17T04:33:59.359Z,7.13
2018-12-17T04:36:33.261Z,7.27
2018-12-17T04:39:07.169Z,7.50
2018-12-17T04:41:41.076Z,8.00
2018-12-17T04:44:14.984Z,7.50
2018-12-17T04:46:48.994Z,7.70
2018-12-17T04:49:22.697Z,7.87
2018-12-17T04:51:56.504Z,6.97
2018-12-17T04:54:30.817Z,7.40
2018-12-17T04:57:04.536Z,7.60
2018-12-17T04:59:38.386Z,6.97
2018-12-17T05:02:12.133Z,7.60
2018-12-17T05:04:46.139Z,8.03
2018-12-17T05:07:20.046Z,8.30
2018-12-17T05:09:53.803Z,7.90
2018-12-17T05:12:27.861Z,7.80
2018-12-17T05:15:03.718Z,6.93
2018-12-17T05:17:37.692Z,7.90
2018-12-17T05:20:11.471Z,8.13
2018-12-17T05:22:45.577Z,7.80
2018-12-17T05:25:19.494Z,8.40
2018-12-17T05:27:53.485Z,7.87
2018-12-17T05:30:27.464Z,7.80
2018-12-17T05:33:01.905Z,8.77
2018-12-17T05:35:35.994Z,8.90
2018-12-17T05:38:10.005Z,9.40
2018-12-17T05:40:45.959Z,8.43
2018-12-17T05:43:19.978Z,8.90
2018-12-17T05:45:53.771Z,9.23
2018-12-17T05:48:27.838Z,9.57
2018-12-17T05:51:01.855Z,9.03
2018-12-17T05:53:35.803Z,9.20
2018-12-17T05:56:09.790Z,9.13
2018-12-17T05:58:43.787Z,8.73
2018-12-17T06:01:17.831Z,9.10
2018-12-17T06:03:51.718Z,9.03
2018-12-17T06:06:25.754Z,9.17
2018-12-17T06:08:59.603Z,8.03
2018-12-17T06:11:33.768Z,8.87
2018-12-17T06:14:07.775Z,8.43
2018-12-17T06:16:41.579Z,8.73
2018-12-17T06:19:15.289Z,9.00
2018-12-17T06:21:49.497Z,9.10
2018-12-17T06:24:23.711Z,8.63
2018-12-17T06:26:57.618Z,8.67
2018-12-17T06:29:35.555Z,8.73
2018-12-17T06:32:07.563Z,8.80
2018-12-17T06:34:41.454Z,10.00
2018-12-17T06:37:15.605Z,11.20
2018-12-17T06:39:49.362Z,11.10
2018-12-17T06:42:23.519Z,10.97
2018-12-17T06:44:57.373Z,11.50
2018-12-17T06:47:31.436Z,11.50
2018-12-17T06:50:06.058Z,12.00
2018-12-17T06:52:40.071Z,11.83
2018-12-17T06:55:13.822Z,11.90
2018-12-17T06:57:48.093Z,11.60
2018-12-17T07:00:21.996Z,11.27
2018-12-17T07:02:55.902Z,11.40
2018-12-17T07:05:29.709Z,11.50
2018-12-17T07:08:03.805Z,11.70
2018-12-17T07:10:37.728Z,10.77
2018-12-17T07:13:11.941Z,11.37
2018-12-17T07:15:45.723Z,11.40
2018-12-17T07:18:19.755Z,10.90
2018-12-17T07:20:53.537Z,10.43
2018-12-17T07:23:27.369Z,9.70
2018-12-17T07:26:01.375Z,9.80
2018-12-17T07:28:35.384Z,9.80
2018-12-17T07:31:09.188Z,9.10
2018-12-17T07:33:42.993Z,9.63
2018-12-17T07:36:17.382Z,9.83
2018-12-17T07:38:51.114Z,8.73
2018-12-17T07:41:25.023Z,9.80
2018-12-17T07:43:58.778Z,10.10
2018-12-17T07:46:33.050Z,10.43
2018-12-17T07:49:07.051Z,10.33
2018-12-17T07:51:40.958Z,9.57
2018-12-17T07:54:14.865Z,10.30
2018-12-17T07:56:48.773Z,10.07
2018-12-17T07:59:22.580Z,11.23
2018-12-17T08:01:56.589Z,10.67
2018-12-17T08:04:30.393Z,10.50
2018-12-17T08:07:04.211Z,10.40
2018-12-17T08:09:38.310Z,10.00
2018-12-17T08:12:12.225Z,9.90
2018-12-17T08:14:46.329Z,10.13
2018-12-17T08:17:20.235Z,10.03
2018-12-17T08:19:54.244Z,10.40
2018-12-17T08:22:28.357Z,9.37
2018-12-17T08:25:02.409Z,9.37
2018-12-17T08:27:36.580Z,9.50
2018-12-17T08:30:10.386Z,9.63
2018-12-17T08:32:44.193Z,9.50
2018-12-17T08:35:18.409Z,9.43
2018-12-17T08:37:52.194Z,8.33
2018-12-17T08:40:26.188Z,8.47
2018-12-17T08:43:00.229Z,8.53
2018-12-17T08:45:34.137Z,8.07
2018-12-17T08:48:07.861Z,8.40
2018-12-17T08:50:41.747Z,7.47
2018-12-17T08:53:15.858Z,7.40
2018-12-17T08:55:49.642Z,6.30
2018-12-17T08:58:23.980Z,5.47
2018-12-17T09:00:57.888Z,5.43
2018-12-17T09:03:31.895Z,5.80
2018-12-17T09:06:05.763Z,5.97
2018-12-17T09:08:39.812Z,6.00
2018-12-17T09:11:13.597Z,6.23
2018-12-17T09:13:47.728Z,5.87
2018-12-17T09:16:21.738Z,6.03
2018-12-17T09:18:55.749Z,5.53
2018-12-17T09:21:29.557Z,5.10
2018-12-17T09:24:03.563Z,5.83
2018-12-17T09:26:37.378Z,5.30
2018-12-17T09:29:11.275Z,5.40
2018-12-17T09:31:45.090Z,5.27
2018-12-17T09:34:18.844Z,4.57
2018-12-17T09:36:52.792Z,4.07
2018-12-17T09:39:26.698Z,4.63
2018-12-17T09:42:00.811Z,4.30
2018-12-17T09:44:34.620Z,4.80
2018-12-17T09:47:08.624Z,5.17
2018-12-17T09:49:42.532Z,4.47
2018-12-17T09:52:16.444Z,4.90
2018-12-17T09:54:50.244Z,4.67
2018-12-17T09:57:23.913Z,4.27
2018-12-17T09:59:57.748Z,4.63
2018-12-17T10:02:31.601Z,4.00
2018-12-17T10:05:05.673Z,4.67
2018-12-17T10:07:39.677Z,5.03
2018-12-17T10:10:13.583Z,5.60
2018-12-17T10:12:47.288Z,5.00
2018-12-17T10:15:21.236Z,4.97
2018-12-17T10:17:55.305Z,4.90
2018-12-17T10:20:29.319Z,4.73
2018-12-17T10:23:03.428Z,4.40
2018-12-17T10:25:37.334Z,3.80
2018-12-17T10:28:11.325Z,3.23
2018-12-17T10:30:45.321Z,3.40
2018-12-17T10:33:19.465Z,2.83
2018-12-17T10:35:53.372Z,2.97
2018-12-17T10:38:27.076Z,2.63
2018-12-17T10:41:01.187Z,2.60
2018-12-17T10:43:35.094Z,2.63
2018-12-17T10:46:08.878Z,3.07
2018-12-17T10:48:42.908Z,2.73
2018-12-17T10:51:16.760Z,2.63
2018-12-17T10:53:50.825Z,2.93
2018-12-17T10:56:24.630Z,3.13
2018-12-17T10:58:58.611Z,3.17
2018-12-17T11:01:51.389Z,3.40
2018-12-17T11:04:27.446Z,3.40
2018-12-17T11:07:01.250Z,3.27
2018-12-17T11:09:35.059Z,3.60
2018-12-17T11:12:09.167Z,3.90
2018-12-17T11:14:43.095Z,3.67
2018-12-17T11:17:16.959Z,3.93
2018-12-17T11:19:51.051Z,3.80
2018-12-17T11:22:25.046Z,3.87
2018-12-17T11:24:59.114Z,4.00
2018-12-17T11:27:32.819Z,4.30
2018-12-17T11:30:09.082Z,4.23
2018-12-17T11:32:43.794Z,4.50
2018-12-17T11:35:18.705Z,4.20
2018-12-17T11:37:52.746Z,4.60
2018-12-17T11:40:26.653Z,4.53
2018-12-17T11:43:00.710Z,4.70
2018-12-17T11:45:34.875Z,4.70
2018-12-17T11:48:08.886Z,4.80
2018-12-17T11:50:42.793Z,4.80
2018-12-17T11:53:17.006Z,5.43
2018-12-17T11:55:51.199Z,5.07
2018-12-17T11:58:25.334Z,5.37
2018-12-17T12:01:00.234Z,5.80
2018-12-17T12:03:35.810Z,5.67
2018-12-17T12:06:13.917Z,5.40
2018-12-17T12:08:45.674Z,5.67
2018-12-17T12:11:19.554Z,5.27
2018-12-17T12:13:53.487Z,5.40
2018-12-17T12:16:27.906Z,5.53
2018-12-17T12:19:01.927Z,5.13
2018-12-17T12:21:35.721Z,5.47
2018-12-17T12:24:09.730Z,5.93
2018-12-17T12:26:43.534Z,6.10
2018-12-17T12:29:17.631Z,6.37
2018-12-17T12:31:51.759Z,6.50
2018-12-17T12:34:25.666Z,6.50
2018-12-17T12:36:59.573Z,7.30
2018-12-17T12:39:33.582Z,7.17
2018-12-17T12:42:07.286Z,7.70
2018-12-17T12:44:41.199Z,6.70
2018-12-17T12:47:15.304Z,6.80
2018-12-17T12:49:49.116Z,7.03
2018-12-17T12:52:23.223Z,6.60
2018-12-17T12:54:57.236Z,6.03
2018-12-17T12:57:31.243Z,6.80
2018-12-17T13:00:07.666Z,6.13
2018-12-17T13:02:41.729Z,6.50
2018-12-17T13:05:15.624Z,6.53
2018-12-17T13:07:49.429Z,6.67
2018-12-17T13:10:23.338Z,6.77
2018-12-17T13:12:57.105Z,6.23
2018-12-17T13:15:31.256Z,5.77
2018-12-17T13:18:05.265Z,6.10
2018-12-17T13:20:39.171Z,6.40
2018-12-17T13:23:12.855Z,5.83
2018-12-17T13:25:47.804Z,6.73
2018-12-17T13:28:21.711Z,6.30
2018-12-17T13:30:55.517Z,6.43
2018-12-17T13:33:29.324Z,6.57
2018-12-17T13:36:04.284Z,7.00
2018-12-17T13:38:38.026Z,6.63
2018-12-17T13:41:11.964Z,6.97
2018-12-17T13:43:45.871Z,7.50
2018-12-17T13:46:19.680Z,6.77
2018-12-17T13:48:53.788Z,7.30
2018-12-17T13:51:33.740Z,6.67
2018-12-17T13:54:07.646Z,6.70
2018-12-17T13:56:41.451Z,6.20
2018-12-17T13:59:15.261Z,5.90
2018-12-17T14:01:51.592Z,6.00
2018-12-17T14:04:25.182Z,6.23
2018-12-17T14:06:59.276Z,6.37
2018-12-17T14:09:35.186Z,6.10
2018-12-17T14:12:09.193Z,6.10
2018-12-17T14:14:43.102Z,7.23
2018-12-17T14:17:22.640Z,7.03
2018-12-17T14:20:02.080Z,7.30
2018-12-17T14:22:35.881Z,7.57
2018-12-17T14:25:10.100Z,7.03
2018-12-17T14:27:43.895Z,8.03
2018-12-17T14:30:18.658Z,8.03
2018-12-17T14:32:52.537Z,7.73
2018-12-17T14:35:26.441Z,8.27
2018-12-17T14:38:02.501Z,8.50
2018-12-17T14:40:36.306Z,8.37
2018-12-17T14:43:10.172Z,8.13
2018-12-17T14:45:44.323Z,8.00
2018-12-17T14:48:18.028Z,7.47
2018-12-17T14:50:52.142Z,8.13
2018-12-17T14:53:26.047Z,7.77
2018-12-17T14:55:59.934Z,8.27
2018-12-17T14:58:33.863Z,7.47
2018-12-17T15:01:07.974Z,7.30
2018-12-17T15:03:41.839Z,7.53
2018-12-17T15:06:15.683Z,6.87
2018-12-17T15:08:49.805Z,8.10
2018-12-17T15:11:23.806Z,10.00
2018-12-17T15:13:57.559Z,12.13
2018-12-17T15:16:31.724Z,8.90
2018-12-17T15:19:05.494Z,13.37
2018-12-17T15:21:39.587Z,19.77
2018-12-17T15:24:13.631Z,11.70
2018-12-17T15:26:47.774Z,10.27
2018-12-17T15:29:21.668Z,9.37
2018-12-17T15:31:55.577Z,8.20
2018-12-17T15:34:29.384Z,8.50
2018-12-17T15:37:03.594Z,8.23
2018-12-17T15:39:37.760Z,9.73
2018-12-17T15:42:11.678Z,8.83
2018-12-17T15:44:45.694Z,8.40
2018-12-17T15:47:19.713Z,8.17
2018-12-17T15:49:53.846Z,8.43
2018-12-17T15:52:27.754Z,8.70
2018-12-17T15:55:02.513Z,8.97
2018-12-17T15:57:36.496Z,8.87
2018-12-17T16:00:11.028Z,9.03
2018-12-17T16:02:44.920Z,8.90
2018-12-17T16:05:18.720Z,9.40
2018-12-17T16:07:52.632Z,9.60
2018-12-17T16:10:26.642Z,10.37
2018-12-17T16:13:00.316Z,9.70
2018-12-17T16:15:34.352Z,9.40
2018-12-17T16:18:08.260Z,10.40
2018-12-17T16:20:42.168Z,10.27
2018-12-17T16:23:15.934Z,9.27
2018-12-17T16:25:49.984Z,10.13
2018-12-17T16:28:23.788Z,10.80
2018-12-17T16:30:57.837Z,12.37
2018-12-17T16:33:32.115Z,11.83
2018-12-17T16:36:05.917Z,11.80
2018-12-17T16:38:39.826Z,11.63
2018-12-17T16:41:13.835Z,11.60
2018-12-17T16:43:47.538Z,11.83
2018-12-17T16:46:21.750Z,12.10
2018-12-17T16:48:55.864Z,12.27
2018-12-17T16:51:29.873Z,12.40
2018-12-17T16:54:03.672Z,12.33
2018-12-17T16:56:37.790Z,13.10
2018-12-17T16:59:11.902Z,12.33
2018-12-17T17:01:45.706Z,12.63
2018-12-17T17:04:19.614Z,13.67
2018-12-17T17:06:53.524Z,12.20
2018-12-17T17:09:27.633Z,12.50
2018-12-17T17:12:01.445Z,11.73
2018-12-17T17:14:35.311Z,12.13
2018-12-17T17:17:09.354Z,12.10
2018-12-17T17:19:43.371Z,13.83
2018-12-17T17:22:17.173Z,14.40
2018-12-17T17:24:51.193Z,15.07
2018-12-17T17:27:25.292Z,13.17
2018-12-17T17:29:59.304Z,13.20
2018-12-17T17:32:33.172Z,12.23
2018-12-17T17:35:07.135Z,12.33
2018-12-17T17:37:41.126Z,12.97
2018-12-17T17:40:15.339Z,12.63
2018-12-17T17:42:49.351Z,13.23
2018-12-17T17:45:23.974Z,12.53
2018-12-17T17:47:57.841Z,12.60
2018-12-17T17:50:31.993Z,14.87
2018-12-17T17:53:05.901Z,14.10
2018-12-17T17:55:39.908Z,15.33
2018-12-17T17:58:13.815Z,13.77
2018-12-17T18:00:47.725Z,13.70
2018-12-17T18:03:21.533Z,13.50
2018-12-17T18:05:55.213Z,12.97
2018-12-17T18:08:29.137Z,14.10
2018-12-17T18:11:03.147Z,15.30
2018-12-17T18:13:36.918Z,14.70
2018-12-17T18:16:11.065Z,15.47
2018-12-17T18:18:44.975Z,14.37
2018-12-17T18:21:18.878Z,14.43
2018-12-17T18:23:52.785Z,14.07
2018-12-17T18:26:26.898Z,14.23
2018-12-17T18:29:00.804Z,14.57
2018-12-17T18:31:34.609Z,13.93
2018-12-17T18:34:08.517Z,15.97
2018-12-17T18:36:42.423Z,14.93
2018-12-17T18:39:16.332Z,13.57
2018-12-17T18:41:50.510Z,13.63
2018-12-17T18:44:25.379Z,14.23
2018-12-17T18:46:59.588Z,14.50
2018-12-17T18:49:33.393Z,14.57
2018-12-17T18:52:07.305Z,14.40
2018-12-17T18:54:41.076Z,15.13
2018-12-17T18:57:15.217Z,15.00
2018-12-17T18:59:49.226Z,14.70
2018-12-17T19:02:23.236Z,14.60
2018-12-17T19:04:57.144Z,14.97
2018-12-17T19:07:31.051Z,14.23
2018-12-17T19:10:06.392Z,13.97
2018-12-17T19:12:40.204Z,15.50
2018-12-17T19:15:14.206Z,14.97
2018-12-17T19:17:48.114Z,15.73
2018-12-17T19:20:22.123Z,15.60
2018-12-17T19:22:56.032Z,15.23
2018-12-17T19:25:29.762Z,14.67
2018-12-17T19:28:03.948Z,14.10
2018-12-17T19:30:37.757Z,14.57
2018-12-17T19:33:11.968Z,15.27
2018-12-17T19:35:45.916Z,14.03
2018-12-17T19:38:19.986Z,14.47
2018-12-17T19:40:53.792Z,14.63
2018-12-17T19:43:27.684Z,13.20
2018-12-17T19:46:01.807Z,14.73
2018-12-17T19:48:35.821Z,15.27
2018-12-17T19:51:09.836Z,14.97
2018-12-17T19:53:43.908Z,14.20
2018-12-17T19:56:18.021Z,14.20
2018-12-17T19:58:51.915Z,13.83
2018-12-17T20:01:26.074Z,13.73
2018-12-17T20:03:59.982Z,15.13
2018-12-17T20:06:34.101Z,14.43
2018-12-17T20:09:08.204Z,14.10
2018-12-17T20:11:42.117Z,13.90
2018-12-17T20:14:16.121Z,14.60
2018-12-17T20:16:50.218Z,14.30
2018-12-17T20:19:24.106Z,13.07
2018-12-17T20:21:58.050Z,13.80
2018-12-17T20:24:32.061Z,13.67
2018-12-17T20:27:06.171Z,13.77
2018-12-17T20:29:40.076Z,13.50
2018-12-17T20:32:13.920Z,13.83
2018-12-17T20:34:47.996Z,13.77
2018-12-17T20:37:22.058Z,13.93
2018-12-17T20:39:56.117Z,13.60
2018-12-17T20:42:30.126Z,12.53
2018-12-17T20:45:05.179Z,13.27
2018-12-17T20:47:39.169Z,13.57
2018-12-17T20:50:12.870Z,13.47
2018-12-17T20:52:46.778Z,13.87
2018-12-17T20:55:21.712Z,13.00
2018-12-17T20:57:55.720Z,14.10
2018-12-17T21:00:30.039Z,13.73
2018-12-17T21:03:04.147Z,12.97
2018-12-17T21:05:37.922Z,12.37
2018-12-17T21:08:12.063Z,12.27
2018-12-17T21:10:45.970Z,13.13
2018-12-17T21:13:19.986Z,12.37
2018-12-17T21:15:53.677Z,12.40
2018-12-17T21:18:27.795Z,12.00
2018-12-17T21:21:01.554Z,12.80
2018-12-17T21:23:36.563Z,12.67
2018-12-17T21:26:10.815Z,12.57
2018-12-17T21:28:44.731Z,12.60
2018-12-17T21:31:18.867Z,12.13
2018-12-17T21:33:52.616Z,12.47
2018-12-17T21:36:26.685Z,12.33
2018-12-17T21:39:00.553Z,11.97
2018-12-17T21:41:34.600Z,12.80
2018-12-17T21:44:08.710Z,12.33
2018-12-17T21:46:42.618Z,12.43
2018-12-17T21:49:16.422Z,12.67
2018-12-17T21:51:50.228Z,12.10
2018-12-17T21:54:24.441Z,12.43
2018-12-17T21:56:58.350Z,12.03
2018-12-17T21:59:32.360Z,12.70
2018-12-17T22:02:06.572Z,12.40
2018-12-17T22:04:40.628Z,11.40
2018-12-17T22:07:14.706Z,11.97
2018-12-17T22:09:48.909Z,11.80
2018-12-17T22:12:22.724Z,11.90
2018-12-17T22:14:56.723Z,12.17
2018-12-17T22:17:30.645Z,12.47
2018-12-17T22:20:05.669Z,15.83
2018-12-17T22:22:39.476Z,13.40
2018-12-17T22:25:13.478Z,13.37
2018-12-17T22:27:47.389Z,11.80
2018-12-17T22:30:21.299Z,12.83
2018-12-17T22:32:56.199Z,11.67
2018-12-17T22:35:31.886Z,12.67
2018-12-17T22:38:05.839Z,12.50
2018-12-17T22:40:39.775Z,11.80
2018-12-17T22:43:13.866Z,12.20
2018-12-17T22:45:48.013Z,12.10
2018-12-17T22:48:22.023Z,11.90
2018-12-17T22:50:55.938Z,12.10
2018-12-17T22:53:29.986Z,11.87
2018-12-17T22:56:04.051Z,11.77
2018-12-17T22:58:42.319Z,12.27
2018-12-17T23:01:14.121Z,12.83
2018-12-17T23:03:48.128Z,12.17
2018-12-17T23:06:22.243Z,12.73
2018-12-17T23:09:04.853Z,12.87
2018-12-17T23:11:56.476Z,13.37
2018-12-17T23:14:42.626Z,13.60
2018-12-17T23:17:28.453Z,13.13
2018-12-17T23:20:02.262Z,13.53
2018-12-17T23:22:38.622Z,13.47
2018-12-17T23:25:12.532Z,13.40
2018-12-17T23:27:48.587Z,13.47
2018-12-17T23:30:22.859Z,12.40
2018-12-17T23:32:58.352Z,12.77
2018-12-17T23:35:32.174Z,12.53
2018-12-17T23:38:06.162Z,13.50
2018-12-17T23:40:39.930Z,13.37
2018-12-17T23:43:13.670Z,12.90
2018-12-17T23:45:47.679Z,13.50
2018-12-17T23:48:21.529Z,12.43
2018-12-17T23:50:55.595Z,13.60
2018-12-17T23:53:29.503Z,13.77
2018-12-17T23:56:03.616Z,13.13
2018-12-17T23:58:37.625Z,13.23
